Time;durP1;ratioP1;P1;durP2;ratioP2;P2;SDS_P1;SDS_P2;PMS_P1;PMS_P2;Temp;Humidity;BMP_temperature;BMP_pressure;BME280_temperature;BME280_humidity;BME280_pressure;Samples;Min_cycle;Max_cycle;Signal;HPM_P1;HPM_P2
2023/04/18 00:01:17;;;;;;;10.75;7.47;;;;;;;10.70;50.89;100894.91;4991847;28;20137;-79
2023/04/18 00:03:44;;;;;;;12.70;7.75;;;;;;;10.72;50.80;100895.69;4991929;28;20175;-79
2023/04/18 00:06:12;;;;;;;10.57;7.85;;;;;;;10.74;50.93;100893.84;4989949;28;20512;-80
2023/04/18 00:08:39;;;;;;;11.32;8.20;;;;;;;10.76;50.74;100894.63;4990135;28;20140;-80
2023/04/18 00:11:05;;;;;;;10.20;7.65;;;;;;;10.80;50.96;100896.22;4990140;28;20062;-79
2023/04/18 00:13:32;;;;;;;14.50;7.82;;;;;;;10.84;51.03;100893.50;4990282;28;20058;-79
2023/04/18 00:15:58;;;;;;;10.48;7.38;;;;;;;10.86;50.87;100895.13;4990168;28;20062;-80
2023/04/18 00:18:25;;;;;;;12.23;8.02;;;;;;;10.90;51.06;100895.88;4989775;28;20082;-80
2023/04/18 00:20:53;;;;;;;10.80;7.88;;;;;;;10.91;51.19;100892.31;4991469;28;20062;-80
2023/04/18 00:23:21;;;;;;;11.30;7.88;;;;;;;10.94;51.05;100884.28;4991454;28;20578;-80
2023/04/18 00:25:47;;;;;;;11.15;7.35;;;;;;;10.96;51.29;100890.38;4991018;28;20115;-80
2023/04/18 00:28:14;;;;;;;9.98;7.13;;;;;;;11.00;51.25;100893.72;4991003;28;20050;-80
2023/04/18 00:30:40;;;;;;;9.82;7.57;;;;;;;11.02;50.97;100889.22;4990741;28;20054;-80
2023/04/18 00:33:07;;;;;;;9.15;6.95;;;;;;;11.04;51.20;100885.66;4991411;28;20065;-80
2023/04/18 00:35:34;;;;;;;12.90;8.25;;;;;;;11.05;51.09;100882.09;4990875;28;20143;-80
2023/04/18 00:38:00;;;;;;;11.75;7.75;;;;;;;11.06;51.48;100883.78;4990750;28;20051;-79
2023/04/18 00:40:27;;;;;;;13.18;7.82;;;;;;;11.10;51.13;100888.94;4991403;28;20145;-80
2023/04/18 00:42:53;;;;;;;10.02;7.57;;;;;;;11.13;51.27;100886.16;4991259;28;20491;-79
2023/04/18 00:45:20;;;;;;;11.27;8.07;;;;;;;11.12;51.29;100885.31;4990693;28;20497;-80
2023/04/18 00:47:46;;;;;;;11.00;7.38;;;;;;;11.13;51.30;100883.53;4989330;28;20051;-79
2023/04/18 00:50:13;;;;;;;9.85;7.25;;;;;;;11.13;51.27;100891.44;4990933;28;20132;-80
2023/04/18 00:52:40;;;;;;;10.38;7.05;;;;;;;11.12;51.23;100884.44;4990921;28;20124;-79
2023/04/18 00:55:07;;;;;;;9.02;6.90;;;;;;;11.13;51.47;100887.03;4990338;28;20116;-80
2023/04/18 00:57:34;;;;;;;8.93;6.88;;;;;;;11.11;51.30;100878.34;4990297;28;20085;-79
2023/04/18 01:00:08;;;;;;;10.27;7.18;;;;;;;11.08;51.40;100887.25;4990977;28;20117;-80
2023/04/18 01:02:36;;;;;;;9.82;7.07;;;;;;;11.10;51.50;100879.25;4990819;28;20152;-80
2023/04/18 01:05:03;;;;;;;9.80;7.15;;;;;;;11.10;51.45;100881.03;4990324;28;20124;-79
2023/04/18 01:07:32;;;;;;;8.93;6.97;;;;;;;11.12;51.51;100884.44;4989939;28;20431;-79
2023/04/18 01:09:59;;;;;;;9.10;6.93;;;;;;;11.11;51.63;100878.34;4990926;28;20054;-79
2023/04/18 01:12:26;;;;;;;10.02;6.75;;;;;;;11.13;51.46;100878.25;4990744;28;20093;-79
2023/04/18 01:14:52;;;;;;;9.85;6.90;;;;;;;11.14;51.38;100882.63;4990258;28;20066;-79
2023/04/18 01:17:18;;;;;;;10.23;6.93;;;;;;;11.14;51.31;100882.63;4990036;28;20097;-79
2023/04/18 01:19:48;;;;;;;9.60;7.20;;;;;;;11.14;51.24;100878.19;4989029;28;20133;-80
2023/04/18 01:22:16;;;;;;;10.23;7.13;;;;;;;11.14;51.26;100880.84;4988777;28;20171;-80
2023/04/18 01:24:42;;;;;;;9.52;6.50;;;;;;;11.15;51.13;100877.31;4990639;28;20125;-80
2023/04/18 01:27:12;;;;;;;9.82;7.57;;;;;;;11.14;51.36;100883.47;4988689;28;20058;-80
2023/04/18 01:29:39;;;;;;;11.27;7.78;;;;;;;11.14;50.98;100877.34;4990440;28;20394;-80
2023/04/18 01:32:06;;;;;;;12.45;7.03;;;;;;;11.12;50.94;100879.19;4990336;28;20062;-81
2023/04/18 01:34:32;;;;;;;9.68;6.93;;;;;;;11.10;50.81;100875.78;4990153;28;20472;-80
2023/04/18 01:36:59;;;;;;;8.05;6.38;;;;;;;11.07;50.84;100877.59;4989420;28;20074;-80
2023/04/18 01:39:25;;;;;;;10.35;7.30;;;;;;;11.04;50.73;100880.38;4990063;28;20492;-80
2023/04/18 01:41:52;;;;;;;12.82;7.50;;;;;;;11.02;50.77;100878.69;4989740;28;20066;-80
2023/04/18 01:44:18;;;;;;;10.10;7.18;;;;;;;11.01;50.72;100872.59;4989610;28;20062;-80
2023/04/18 01:46:44;;;;;;;9.82;6.82;;;;;;;11.00;50.59;100889.31;4989226;28;20501;-80
2023/04/18 01:49:11;;;;;;;11.52;6.80;;;;;;;11.00;50.72;100885.81;4988763;28;20054;-80
2023/04/18 01:51:38;;;;;;;9.77;6.63;;;;;;;10.99;50.86;100890.22;4990046;28;20076;-80
2023/04/18 01:54:04;;;;;;;13.25;7.38;;;;;;;10.98;50.85;100885.88;4990195;28;20065;-80
2023/04/18 01:56:31;;;;;;;10.85;6.82;;;;;;;10.98;50.71;100880.59;4989574;28;20058;-80
2023/04/18 01:58:59;;;;;;;8.73;5.97;;;;;;;10.97;50.76;100880.66;4989849;28;20050;-80
2023/04/18 02:01:26;;;;;;;8.90;6.47;;;;;;;10.94;50.58;100879.88;4989876;28;20386;-80
2023/04/18 02:03:52;;;;;;;10.45;6.63;;;;;;;10.94;50.44;100876.38;4989895;28;20058;-80
2023/04/18 02:06:19;;;;;;;9.65;5.97;;;;;;;10.92;50.83;100872.97;4988226;28;20420;-80
2023/04/18 02:08:46;;;;;;;7.95;5.93;;;;;;;10.89;51.06;100878.34;4989618;28;20067;-80
2023/04/18 02:11:12;;;;;;;9.80;5.90;;;;;;;10.88;50.94;100879.28;4989936;28;20125;-79
2023/04/18 02:13:38;;;;;;;10.27;5.70;;;;;;;10.87;50.98;100880.22;4988555;28;20086;-80
2023/04/18 02:16:10;;;;;;;8.02;5.68;;;;;;;10.86;50.99;100875.84;4989494;28;20058;-80
2023/04/18 02:18:38;;;;;;;6.65;4.95;;;;;;;10.84;50.86;100869.78;4988083;28;20061;-79
2023/04/18 02:21:05;;;;;;;8.52;5.72;;;;;;;10.80;51.00;100872.53;4989848;28;20100;-80
2023/04/18 02:23:31;;;;;;;6.60;5.03;;;;;;;10.79;51.37;100867.31;4989667;28;20058;-79
2023/04/18 02:25:58;;;;;;;9.27;5.45;;;;;;;10.79;51.20;100873.47;4988153;28;20062;-79
2023/04/18 02:28:24;;;;;;;7.95;5.45;;;;;;;10.77;51.28;100867.38;4989337;28;20432;-79
2023/04/18 02:30:51;;;;;;;6.65;5.10;;;;;;;10.77;51.39;100870.00;4989639;28;20489;-80
2023/04/18 02:33:17;;;;;;;7.05;5.05;;;;;;;10.76;51.28;100868.31;4989862;28;20112;-79
2023/04/18 02:35:43;;;;;;;6.93;5.10;;;;;;;10.76;51.39;100870.09;4989278;28;20647;-79
2023/04/18 02:38:10;;;;;;;6.45;4.72;;;;;;;10.74;51.32;100867.53;4989310;28;20066;-79
2023/04/18 02:40:36;;;;;;;7.63;4.93;;;;;;;10.73;51.48;100871.06;4988122;28;20054;-80
2023/04/18 02:43:02;;;;;;;7.13;4.65;;;;;;;10.73;51.46;100868.41;4989402;28;20058;-79
2023/04/18 02:45:29;;;;;;;9.10;4.80;;;;;;;10.74;51.54;100872.78;4989159;28;20058;-79
2023/04/18 02:47:55;;;;;;;5.75;4.07;;;;;;;10.72;51.88;100869.34;4989419;28;20458;-79
2023/04/18 02:50:23;;;;;;;6.13;4.57;;;;;;;10.72;51.54;100871.13;4989748;28;20058;-80
2023/04/18 02:52:50;;;;;;;6.95;4.90;;;;;;;10.71;51.60;100870.28;4989628;28;20141;-79
2023/04/18 02:55:16;;;;;;;5.53;4.28;;;;;;;10.69;51.69;100872.09;4991999;28;20066;-80
2023/04/18 02:57:43;;;;;;;5.80;4.40;;;;;;;10.69;51.62;100872.09;4993032;28;20479;-80
2023/04/18 03:00:10;;;;;;;5.75;4.20;;;;;;;10.68;51.80;100875.66;4992732;28;20109;-80
2023/04/18 03:02:36;;;;;;;5.60;4.15;;;;;;;10.67;51.83;100871.31;4993134;28;20066;-79
2023/04/18 03:05:03;;;;;;;5.22;4.30;;;;;;;10.67;51.90;100874.81;4992627;28;20497;-80
2023/04/18 03:07:29;;;;;;;7.68;4.50;;;;;;;10.65;51.92;100870.53;4991333;28;20081;-80
2023/04/18 03:09:56;;;;;;;5.47;4.22;;;;;;;10.64;51.99;100864.38;4993222;28;20062;-79
2023/04/18 03:12:23;;;;;;;4.47;3.70;;;;;;;10.64;51.79;100863.53;4992785;28;20113;-80
2023/04/18 03:14:49;;;;;;;6.25;4.15;;;;;;;10.61;51.88;100864.50;4992175;28;20050;-80
2023/04/18 03:17:16;;;;;;;7.10;4.05;;;;;;;10.60;51.83;100877.72;4990995;28;20082;-80
2023/04/18 03:19:43;;;;;;;6.18;4.00;;;;;;;10.58;51.95;100874.31;4992563;28;20062;-79
2023/04/18 03:22:10;;;;;;;5.80;4.35;;;;;;;10.54;52.08;100882.31;4992752;28;20086;-79
2023/04/18 03:24:36;;;;;;;4.90;3.85;;;;;;;10.53;52.11;100874.47;4992631;28;20424;-79
2023/04/18 03:27:03;;;;;;;5.75;4.13;;;;;;;10.52;52.12;100876.25;4991712;28;20579;-79
2023/04/18 03:29:29;;;;;;;6.75;4.38;;;;;;;10.50;52.06;100874.63;4991427;28;20055;-79
2023/04/18 03:31:56;;;;;;;7.55;4.18;;;;;;;10.47;52.25;100875.56;4992675;28;20088;-79
2023/04/18 03:34:22;;;;;;;7.10;4.43;;;;;;;10.47;52.21;100883.47;4992607;28;20058;-79
2023/04/18 03:36:49;;;;;;;6.05;4.50;;;;;;;10.47;52.30;100887.88;4991647;28;20119;-80
2023/04/18 03:39:15;;;;;;;7.78;4.15;;;;;;;10.47;52.33;100888.72;4992211;28;20557;-80
2023/04/18 03:41:41;;;;;;;6.75;4.80;;;;;;;10.47;52.40;100885.25;4990712;28;20062;-80
2023/04/18 03:44:08;;;;;;;6.32;4.53;;;;;;;10.47;52.39;100886.09;4992431;28;20058;-79
2023/04/18 03:46:34;;;;;;;6.43;4.93;;;;;;;10.46;52.41;100883.53;4991604;28;20062;-79
2023/04/18 03:49:01;;;;;;;6.35;4.82;;;;;;;10.47;52.65;100898.41;4992070;28;20412;-80
2023/04/18 03:51:32;;;;;;;7.03;4.63;;;;;;;10.42;52.76;100894.16;4990839;28;20133;-79
2023/04/18 03:53:59;;;;;;;6.30;4.85;;;;;;;10.43;52.57;100895.84;4992035;28;20504;-80
2023/04/18 03:56:25;;;;;;;6.53;4.63;;;;;;;10.43;52.45;100903.75;4991505;28;20064;-79
2023/04/18 03:58:52;;;;;;;7.82;5.32;;;;;;;10.41;52.49;100904.72;4991637;28;20081;-79
2023/04/18 04:01:18;;;;;;;5.82;4.75;;;;;;;10.38;52.57;100910.09;4991938;28;20109;-80
2023/04/18 04:03:45;;;;;;;7.40;4.93;;;;;;;10.37;52.74;100908.41;4991972;28;20149;-79
2023/04/18 04:06:11;;;;;;;6.57;5.00;;;;;;;10.35;52.67;100910.25;4990669;28;20113;-80
2023/04/18 04:08:38;;;;;;;6.65;5.03;;;;;;;10.32;52.91;100910.34;4991414;28;20055;-79
2023/04/18 04:11:04;;;;;;;6.78;5.10;;;;;;;10.29;52.98;100909.53;4991577;28;20062;-79
2023/04/18 04:13:30;;;;;;;6.82;5.53;;;;;;;10.27;53.03;100907.88;4990790;28;20096;-79
2023/04/18 04:15:57;;;;;;;5.60;4.93;;;;;;;10.24;52.81;100908.00;4990106;28;20105;-79
2023/04/18 04:18:29;;;;;;;7.25;5.22;;;;;;;10.21;53.10;100908.13;4991236;28;20085;-80
2023/04/18 04:20:57;;;;;;;7.57;5.13;;;;;;;10.19;52.90;100909.94;4990194;28;20513;-80
2023/04/18 04:23:27;;;;;;;5.50;4.90;;;;;;;10.14;53.26;100923.28;4990195;28;20058;-80
2023/04/18 04:25:54;;;;;;;7.25;5.22;;;;;;;10.13;53.22;100916.28;4991242;28;20108;-80
2023/04/18 04:28:21;;;;;;;6.43;4.93;;;;;;;10.10;53.43;100916.41;4990026;28;20054;-80
2023/04/18 04:30:49;;;;;;;6.38;5.03;;;;;;;10.10;53.37;100924.28;4991463;28;20061;-80
2023/04/18 04:33:18;;;;;;;6.82;5.30;;;;;;;10.07;53.60;100921.75;4991350;28;20077;-80
2023/04/18 04:35:48;;;;;;;10.32;5.22;;;;;;;10.07;53.49;100927.03;4990764;28;20050;-80
2023/04/18 04:38:15;;;;;;;7.75;5.40;;;;;;;10.06;53.62;100925.31;4989776;28;20165;-80
2023/04/18 04:43:29;;;;;;;8.13;5.25;;;;;;;10.04;53.85;100931.50;4951628;29;20070;-79
2023/04/18 04:45:56;;;;;;;8.05;5.38;;;;;;;10.03;53.87;100932.38;4952868;29;20055;-79
2023/04/18 04:48:23;;;;;;;6.40;5.30;;;;;;;10.01;53.94;100934.22;4936264;29;20119;-78
2023/04/18 04:50:52;;;;;;;7.15;5.30;;;;;;;9.99;54.22;100936.03;4951885;29;20063;-79
2023/04/18 04:53:19;;;;;;;8.60;5.97;;;;;;;9.97;54.29;100932.63;4953270;29;20054;-77
2023/04/18 04:55:45;;;;;;;7.47;5.22;;;;;;;9.97;54.13;100937.00;4953076;29;20059;-78
2023/04/18 04:58:12;;;;;;;9.73;6.07;;;;;;;9.96;54.36;100943.19;4953114;28;20059;-78
2023/04/18 05:00:38;;;;;;;8.32;5.40;;;;;;;9.95;54.53;100941.47;4953120;29;20066;-78
2023/04/18 05:03:06;;;;;;;7.18;5.68;;;;;;;9.95;54.51;100944.97;4953193;29;20054;-78
2023/04/18 05:05:33;;;;;;;12.45;6.05;;;;;;;9.94;54.57;100945.03;4952709;28;20051;-78
2023/04/18 05:08:00;;;;;;;8.00;5.75;;;;;;;9.94;54.73;100939.78;4952785;29;20090;-78
2023/04/18 05:10:27;;;;;;;7.43;5.30;;;;;;;9.93;54.79;100944.16;4951794;28;20180;-78
2023/04/18 05:12:53;;;;;;;6.97;5.45;;;;;;;9.90;54.74;100947.75;4953241;28;20055;-78
2023/04/18 05:15:20;;;;;;;7.57;5.70;;;;;;;9.88;54.81;100944.31;4952684;28;20079;-77
2023/04/18 05:17:46;;;;;;;9.90;5.80;;;;;;;9.87;55.16;100941.75;4952448;28;20063;-77
2023/04/18 05:20:13;;;;;;;8.27;5.95;;;;;;;9.86;55.21;100951.41;4952820;29;20059;-78
2023/04/18 05:22:40;;;;;;;9.07;6.38;;;;;;;9.84;55.11;100953.25;4952949;29;20138;-78
2023/04/18 05:25:07;;;;;;;9.10;6.47;;;;;;;9.84;55.30;100955.88;4951390;29;20059;-79
2023/04/18 05:27:33;;;;;;;9.95;6.60;;;;;;;9.84;55.48;100947.13;4952669;29;20067;-78
2023/04/18 05:30:00;;;;;;;7.85;6.10;;;;;;;9.84;55.41;100952.38;4952862;28;20055;-79
2023/04/18 05:32:26;;;;;;;10.43;7.15;;;;;;;9.84;55.58;100941.84;4952694;29;20066;-79
2023/04/18 05:34:53;;;;;;;8.15;6.45;;;;;;;9.84;55.62;100940.09;4952439;28;20051;-78
2023/04/18 05:37:21;;;;;;;9.80;6.65;;;;;;;9.84;55.83;100961.13;4952359;29;20086;-78
2023/04/18 05:39:47;;;;;;;8.52;6.50;;;;;;;9.85;55.87;100956.72;4952629;28;20055;-78
2023/04/18 05:42:14;;;;;;;8.35;6.68;;;;;;;9.84;56.00;100965.53;4952565;29;20062;-79
2023/04/18 05:44:40;;;;;;;9.38;6.43;;;;;;;9.82;56.15;100954.19;4952485;28;20452;-79
2023/04/18 05:47:07;;;;;;;10.18;7.07;;;;;;;9.82;56.30;100962.06;4952376;28;20055;-78
2023/04/18 05:49:33;;;;;;;10.82;7.05;;;;;;;9.81;56.22;100958.59;4952624;29;20098;-79
2023/04/18 05:52:00;;;;;;;8.32;5.78;;;;;;;9.81;56.18;100961.22;4935562;29;20118;-79
2023/04/18 05:54:26;;;;;;;9.15;6.55;;;;;;;9.82;56.79;100962.94;4952531;28;20200;-79
2023/04/18 05:56:54;;;;;;;9.10;6.90;;;;;;;9.83;56.92;100961.19;4951743;29;20059;-79
2023/04/18 05:59:20;;;;;;;7.90;6.30;;;;;;;9.86;56.83;100969.81;4952481;29;20059;-78
2023/04/18 06:01:48;;;;;;;9.70;6.50;;;;;;;9.87;56.65;100970.69;4952307;28;20460;-79
2023/04/18 06:04:15;;;;;;;7.95;6.13;;;;;;;9.89;56.70;100971.47;4952960;28;20093;-79
2023/04/18 06:06:42;;;;;;;9.57;6.72;;;;;;;9.90;56.60;100973.19;4950150;29;20549;-79
2023/04/18 06:09:08;;;;;;;8.07;6.22;;;;;;;9.89;56.63;100974.97;4952454;29;20102;-79
2023/04/18 06:11:35;;;;;;;10.60;7.05;;;;;;;9.89;56.65;100982.00;4952459;28;20055;-79
2023/04/18 06:14:02;;;;;;;11.45;6.70;;;;;;;9.88;56.60;100985.56;4952377;28;20500;-79
2023/04/18 06:16:29;;;;;;;12.10;7.13;;;;;;;9.86;56.64;100985.59;4952194;29;20063;-79
2023/04/18 06:18:56;;;;;;;10.15;6.38;;;;;;;9.84;56.75;100992.69;4950776;29;20055;-78
2023/04/18 06:21:26;;;;;;;12.63;7.35;;;;;;;9.83;56.72;100982.22;4952481;29;20070;-79
2023/04/18 06:23:53;;;;;;;10.25;6.88;;;;;;;9.81;57.00;100990.16;4952230;29;20109;-79
2023/04/18 06:26:20;;;;;;;11.73;7.30;;;;;;;9.80;56.82;100987.56;4951873;29;20099;-79
2023/04/18 06:28:47;;;;;;;9.30;6.35;;;;;;;9.78;56.86;100990.25;4952342;28;20074;-79
2023/04/18 06:31:13;;;;;;;10.43;7.35;;;;;;;9.77;57.05;100991.16;4956231;29;20061;-79
2023/04/18 06:33:40;;;;;;;11.30;7.25;;;;;;;9.76;57.25;100987.66;4955807;29;20110;-79
2023/04/18 06:36:07;;;;;;;10.20;6.40;;;;;;;9.74;57.11;101000.03;4955516;29;20070;-79
2023/04/18 06:38:34;;;;;;;10.60;7.75;;;;;;;9.75;57.13;100992.97;4955501;29;20059;-79
2023/04/18 06:41:00;;;;;;;11.30;7.18;;;;;;;9.75;57.43;101007.00;4955511;29;20055;-78
2023/04/18 06:43:27;;;;;;;9.15;6.97;;;;;;;9.77;57.50;101009.59;4955598;29;20102;-78
2023/04/18 06:45:55;;;;;;;13.38;8.00;;;;;;;9.78;57.42;101014.78;4955259;29;20500;-79
2023/04/18 06:48:22;;;;;;;10.43;7.10;;;;;;;9.80;57.34;101013.88;4938365;29;20336;-79
2023/04/18 06:50:48;;;;;;;9.70;7.10;;;;;;;9.82;57.35;101012.03;4955804;29;20074;-79
2023/04/18 06:53:15;;;;;;;9.55;7.13;;;;;;;9.82;57.47;101012.03;4955507;28;20055;-79
2023/04/18 06:55:41;;;;;;;10.65;6.78;;;;;;;9.82;57.67;101026.06;4955059;28;20117;-79
2023/04/18 06:58:08;;;;;;;11.30;6.82;;;;;;;9.84;57.64;101018.13;4954989;29;20083;-79
2023/04/18 07:00:35;;;;;;;10.90;7.63;;;;;;;9.84;57.71;101018.13;4955550;29;20473;-79
2023/04/18 07:03:08;;;;;;;11.23;7.55;;;;;;;9.86;57.46;101013.66;4955579;29;20051;-79
2023/04/18 07:05:37;;;;;;;10.70;7.50;;;;;;;9.87;57.47;101020.66;4955064;28;20079;-79
2023/04/18 07:08:04;;;;;;;10.82;8.05;;;;;;;9.87;57.82;101021.50;4954833;29;20067;-79
2023/04/18 07:10:30;;;;;;;14.13;7.97;;;;;;;9.89;57.96;101011.81;4955101;28;20516;-79
2023/04/18 07:12:57;;;;;;;11.02;7.45;;;;;;;9.93;57.91;101019.56;4955242;29;20066;-79
2023/04/18 07:15:24;;;;;;;12.68;7.90;;;;;;;9.95;58.06;101010.75;4955014;28;20061;-79
2023/04/18 07:17:50;;;;;;;14.93;8.15;;;;;;;9.98;58.00;101007.97;4954843;29;20055;-79
2023/04/18 07:20:17;;;;;;;13.32;7.32;;;;;;;10.01;57.79;101013.16;4954961;29;20508;-79
2023/04/18 07:22:44;;;;;;;14.73;8.60;;;;;;;10.04;58.06;101020.94;4954924;29;20070;-79
2023/04/18 07:25:11;;;;;;;9.60;7.18;;;;;;;10.09;58.16;101018.13;4954515;28;20075;-78
2023/04/18 07:27:37;;;;;;;13.93;8.02;;;;;;;10.14;58.15;101015.34;4953622;29;20062;-79
2023/04/18 07:30:05;;;;;;;11.57;7.72;;;;;;;10.19;58.01;101005.53;4955067;29;20059;-79
2023/04/18 07:32:31;;;;;;;13.63;7.80;;;;;;;10.24;58.04;101008.84;4954838;28;20146;-79
2023/04/18 07:34:58;;;;;;;11.75;8.02;;;;;;;10.27;57.82;101008.75;4954420;29;20389;-79
2023/04/18 07:37:25;;;;;;;11.00;7.93;;;;;;;10.28;57.72;101005.19;4954361;29;20055;-79
2023/04/18 07:39:52;;;;;;;10.35;7.57;;;;;;;10.32;57.76;101018.25;4954316;28;20423;-79
2023/04/18 07:42:18;;;;;;;12.57;8.63;;;;;;;10.36;58.28;101009.34;4954005;28;20118;-79
2023/04/18 07:44:45;;;;;;;12.00;8.57;;;;;;;10.42;58.37;101009.97;4954436;29;20142;-79
2023/04/18 07:47:12;;;;;;;10.35;7.80;;;;;;;10.49;58.38;101018.53;4954247;29;20200;-79
2023/04/18 07:49:38;;;;;;;11.63;8.48;;;;;;;10.57;58.32;101018.25;4937260;29;20538;-79
2023/04/18 07:52:06;;;;;;;13.13;8.73;;;;;;;10.65;58.21;101021.47;4954265;28;20055;-79
2023/04/18 07:54:32;;;;;;;12.95;7.85;;;;;;;10.72;58.15;101019.44;4954312;29;20090;-79
2023/04/18 07:56:59;;;;;;;12.98;7.88;;;;;;;10.78;57.87;101028.91;4953911;29;20121;-79
2023/04/18 07:59:26;;;;;;;11.13;8.38;;;;;;;10.82;57.83;101018.22;4954284;28;20420;-79
2023/04/18 08:01:53;;;;;;;10.88;8.02;;;;;;;10.89;57.95;101021.47;4954486;28;20095;-79
2023/04/18 08:04:20;;;;;;;10.95;8.00;;;;;;;10.94;57.90;101019.50;4954187;29;20416;-79
2023/04/18 08:06:46;;;;;;;13.05;9.23;;;;;;;11.00;58.04;101025.47;4953647;28;20163;-79
2023/04/18 08:09:13;;;;;;;11.80;8.63;;;;;;;11.07;58.33;101024.31;4954248;29;20051;-79
2023/04/18 08:11:41;;;;;;;13.27;8.13;;;;;;;11.14;58.25;101024.94;4954144;29;20504;-79
2023/04/18 08:14:07;;;;;;;11.50;8.15;;;;;;;11.24;58.03;101035.94;4954042;29;20523;-79
2023/04/18 08:16:34;;;;;;;11.32;8.95;;;;;;;11.33;57.84;101043.53;4953532;29;20051;-79
2023/04/18 08:19:01;;;;;;;10.50;8.07;;;;;;;11.39;57.74;101035.34;4954101;29;20059;-79
2023/04/18 08:21:28;;;;;;;13.55;8.15;;;;;;;11.46;57.37;101035.97;4953642;29;20063;-79
2023/04/18 08:23:54;;;;;;;11.90;8.13;;;;;;;11.49;57.54;101033.22;4954261;29;20086;-80
2023/04/18 08:26:21;;;;;;;11.73;8.88;;;;;;;11.54;57.51;101039.16;4952423;29;20071;-79
2023/04/18 08:28:47;;;;;;;13.88;8.50;;;;;;;11.60;57.56;101027.50;4953590;29;20070;-79
2023/04/18 08:31:15;;;;;;;11.90;8.90;;;;;;;11.68;57.83;101029.81;4953880;29;20058;-79
2023/04/18 08:33:42;;;;;;;12.70;8.90;;;;;;;11.78;58.16;101025.03;4953756;29;20106;-79
2023/04/18 08:36:08;;;;;;;10.13;8.43;;;;;;;11.87;58.22;101019.38;4953346;29;20086;-79
2023/04/18 08:38:35;;;;;;;12.25;9.23;;;;;;;12.01;58.07;101020.56;4953519;29;20398;-79
2023/04/18 08:41:01;;;;;;;11.30;9.13;;;;;;;12.10;57.88;101015.78;4953534;29;20055;-79
2023/04/18 08:43:30;;;;;;;12.70;9.40;;;;;;;12.21;57.55;101023.22;4952443;29;20061;-79
2023/04/18 08:45:58;;;;;;;14.68;9.73;;;;;;;12.28;57.28;101026.47;4953320;29;20050;-79
2023/04/18 08:48:28;;;;;;;11.98;9.02;;;;;;;12.34;56.66;101028.81;4953039;29;20059;-79
2023/04/18 08:50:57;;;;;;;11.57;9.15;;;;;;;12.38;56.92;101035.69;4953500;29;20070;-79
2023/04/18 08:53:25;;;;;;;12.65;8.73;;;;;;;12.46;57.04;101039.78;4951826;28;20062;-79
2023/04/18 08:55:56;;;;;;;10.93;8.73;;;;;;;12.48;57.01;101041.41;4952962;28;20496;-79
2023/04/18 08:58:25;;;;;;;12.45;9.38;;;;;;;12.57;56.87;101034.88;4953169;29;20094;-78
2023/04/18 09:00:53;;;;;;;11.07;9.02;;;;;;;12.63;56.89;101033.72;4952920;29;20091;-79
2023/04/18 09:03:40;;;;;;;14.32;9.65;;;;;;;12.64;56.39;101048.69;4953210;29;20063;-78
2023/04/18 09:06:15;;;;;;;11.18;9.05;;;;;;;12.73;57.07;101039.47;4952848;29;20051;-78
2023/04/18 09:08:42;;;;;;;12.32;9.27;;;;;;;12.80;56.74;101050.59;4953052;28;20432;-78
2023/04/18 09:11:30;;;;;;;12.05;9.63;;;;;;;12.85;56.35;101041.53;4952906;29;20137;-79
2023/04/18 09:13:57;;;;;;;12.85;9.63;;;;;;;12.95;56.21;101043.75;4953175;29;20055;-78
2023/04/18 09:16:26;;;;;;;14.27;10.35;;;;;;;13.02;56.48;101047.84;4952687;29;20063;-79
2023/04/18 09:19:17;;;;;;;13.25;9.57;;;;;;;13.07;56.21;101047.59;4952695;29;20571;-79
2023/04/18 09:21:47;;;;;;;12.80;9.70;;;;;;;13.20;56.54;101058.47;4952875;29;20051;-78
2023/04/18 09:24:28;;;;;;;12.45;10.63;;;;;;;13.26;56.18;101053.75;4953249;29;20142;-79
2023/04/18 09:26:57;;;;;;;15.27;10.23;;;;;;;13.31;55.97;101063.25;4952403;29;20051;-79
2023/04/18 09:29:51;;;;;;;12.48;9.50;;;;;;;13.30;55.38;101057.09;4952858;29;20066;-78
2023/04/18 09:32:25;;;;;;;13.13;9.10;;;;;;;13.33;55.74;101054.31;4950305;28;20055;-78
2023/04/18 09:34:58;;;;;;;14.90;10.00;;;;;;;13.37;55.52;101052.38;4952318;29;20058;-78
2023/04/18 09:37:27;;;;;;;12.98;9.70;;;;;;;13.39;55.45;101050.53;4952494;29;20500;-78
2023/04/18 09:39:54;;;;;;;14.10;9.32;;;;;;;13.40;55.87;101057.53;4952651;29;20055;-78
2023/04/18 09:42:21;;;;;;;12.98;9.80;;;;;;;13.41;56.08;101054.81;4952680;29;20094;-78
2023/04/18 09:44:58;;;;;;;11.55;9.15;;;;;;;13.42;55.72;101055.69;4952240;29;20065;-79
2023/04/18 09:47:26;;;;;;;13.07;9.43;;;;;;;13.53;55.91;101060.50;4952175;28;20091;-78
2023/04/18 09:49:53;;;;;;;12.73;9.65;;;;;;;13.58;55.60;101053.19;4952720;29;20132;-79
2023/04/18 09:52:21;;;;;;;12.32;9.50;;;;;;;13.64;55.50;101047.56;4952455;29;20135;-78
2023/04/18 09:54:54;;;;;;;13.23;9.70;;;;;;;13.69;55.30;101050.00;4952403;28;20058;-78
2023/04/18 09:57:24;;;;;;;12.55;9.80;;;;;;;13.77;55.57;101046.97;4952431;28;20059;-79
2023/04/18 09:59:58;;;;;;;13.07;9.52;;;;;;;13.84;55.21;101052.81;4935509;29;20062;-78
2023/04/18 10:02:32;;;;;;;12.20;9.45;;;;;;;13.91;54.94;101052.41;4952535;29;20070;-78
2023/04/18 10:04:59;;;;;;;13.32;9.65;;;;;;;13.99;54.99;101059.13;4954680;28;20163;-78
2023/04/18 10:07:26;;;;;;;12.18;9.13;;;;;;;14.03;54.54;101063.34;4955996;29;20090;-79
2023/04/18 10:09:53;;;;;;;16.00;10.98;;;;;;;14.03;54.54;101058.91;4954993;28;20075;-78
2023/04/18 10:12:19;;;;;;;12.38;9.18;;;;;;;14.03;54.67;101058.03;4956464;29;20077;-78
2023/04/18 10:14:46;;;;;;;11.98;9.38;;;;;;;14.04;54.65;101057.09;4956180;29;20101;-78
2023/04/18 10:17:13;;;;;;;12.82;9.38;;;;;;;14.08;54.85;101063.94;4955974;29;20063;-78
2023/04/18 10:19:43;;;;;;;11.50;8.35;;;;;;;14.15;55.00;101059.19;4939169;29;20095;-78
2023/04/18 10:22:10;;;;;;;13.18;9.68;;;;;;;14.23;54.69;101054.38;4955901;28;20048;-78
2023/04/18 10:24:52;;;;;;;10.98;8.55;;;;;;;14.27;53.86;101047.09;4956125;29;20059;-78
2023/04/18 10:27:47;;;;;;;11.93;9.10;;;;;;;14.35;53.64;101044.09;4955697;29;20394;-79
2023/04/18 10:30:15;;;;;;;12.40;8.27;;;;;;;14.46;54.13;101047.88;4955615;28;20535;-78
2023/04/18 10:32:42;;;;;;;11.48;9.05;;;;;;;14.51;54.17;101047.63;4955756;29;20063;-79
2023/04/18 10:35:10;;;;;;;11.93;9.18;;;;;;;14.54;53.69;101046.63;4955563;28;20512;-78
2023/04/18 10:37:58;;;;;;;14.10;9.25;;;;;;;14.51;53.03;101047.63;4955568;29;20055;-78
2023/04/18 10:40:33;;;;;;;12.40;8.57;;;;;;;14.56;52.92;101050.03;4955881;29;20055;-78
2023/04/18 14:55:26;;;;;;;6.53;3.85;;;;;;;20.35;38.78;100935.22;4969870;28;20073;-75
2023/04/18 14:57:53;;;;;;;5.38;4.20;;;;;;;20.30;39.17;100930.25;4974451;28;20451;-74
2023/04/18 15:00:20;;;;;;;4.07;3.38;;;;;;;20.28;38.99;100926.84;4973632;28;20065;-74
2023/04/18 15:02:46;;;;;;;4.88;3.78;;;;;;;20.23;38.55;100921.03;4974851;28;20047;-75
2023/04/18 15:05:14;;;;;;;4.32;3.58;;;;;;;20.15;38.73;100922.47;4974328;28;20062;-75
2023/04/18 15:07:42;;;;;;;7.45;3.78;;;;;;;20.04;38.67;100917.97;5024400;23;20050;-79
2023/04/18 15:10:11;;;;;;;5.03;4.13;;;;;;;19.95;38.94;100924.00;4993543;28;20058;-79
2023/04/18 15:12:38;;;;;;;4.43;3.90;;;;;;;19.96;39.26;100916.84;4993276;28;20054;-79
2023/04/18 15:15:05;;;;;;;5.55;4.20;;;;;;;20.11;40.28;100917.50;4991686;28;20561;-79
2023/04/18 15:17:32;;;;;;;4.45;3.92;;;;;;;20.49;41.27;100915.41;4975496;28;20059;-79
2023/04/18 15:19:58;;;;;;;4.72;3.92;;;;;;;20.94;40.76;100914.47;4993199;28;20560;-79
2023/04/18 15:22:25;;;;;;;5.32;3.75;;;;;;;21.41;40.15;100910.63;4993199;28;20515;-79
2023/04/18 15:24:51;;;;;;;6.07;4.20;;;;;;;21.80;39.07;100918.09;4992885;28;20059;-79
2023/04/18 15:27:17;;;;;;;5.35;3.80;;;;;;;22.04;38.43;100912.41;4975352;28;20055;-79
2023/04/18 15:29:44;;;;;;;5.38;3.92;;;;;;;22.26;37.99;100930.16;4993114;28;20110;-79
2023/04/18 15:32:11;;;;;;;4.63;4.13;;;;;;;22.46;37.63;100922.16;4993193;28;20054;-79
2023/04/18 15:34:37;;;;;;;5.00;3.58;;;;;;;22.63;37.18;100919.81;4975340;28;20461;-80
2023/04/18 15:37:04;;;;;;;4.28;3.83;;;;;;;22.73;36.98;100915.31;4992365;28;20062;-79
2023/04/18 15:39:30;;;;;;;7.47;3.95;;;;;;;22.89;37.54;100922.84;4993815;28;20166;-79